NK10 weather

Public forecast

Using degrees Fahrenheit for public forecast. Weather courtesy of forecast.io.

Closest aviation weather report (METAR) to D C Helicopters Heliport

Closest report is Dansville Municipal Airport, 10.3 nm (19.0 km) WNW. Retrieved 2020/08/15 15:54 UTC (43 minutes ago):

KDSV 151554Z AUTO VRB05KT 10SM BKN075 BKN100 29/16 A3000 RMK AO2 SLP162 T02890161

Closest aviation forecast (TAF) to D C Helicopters Heliport

Closest forecast is Elmira Corning Regional Airport, 33.8 nm (62.7 km) SE. Retrieved 2020/08/15 12:22 UTC (4 hours ago):

TAF KELM 151120Z 1512/1612 00000KT 6SM BR SCT080 FM151230 15004KT P6SM SCT060 FM160700 18002KT 4SM BR OVC050